Time;durP1;ratioP1;P1;durP2;ratioP2;P2;SDS_P1;SDS_P2;PMS_P1;PMS_P2;Temp;Humidity;BMP_temperature;BMP_pressure;BME280_temperature;BME280_humidity;BME280_pressure;Samples;Min_cycle;Max_cycle;Signal;HPM_P1;HPM_P2
2022/10/15 00:01:37;;;;;;;1.10;1.10;;;;;;;13.12;99.51;95459.00;5134855;27;20428;-55
2022/10/15 00:04:05;;;;;;;0.50;0.37;;;;;;;13.26;98.79;95457.25;5134775;27;20477;-55
2022/10/15 00:06:34;;;;;;;0.40;0.30;;;;;;;13.11;99.37;95460.06;5134553;27;20473;-55
2022/10/15 00:09:04;;;;;;;0.50;0.40;;;;;;;13.10;100.00;95461.16;5133651;27;20425;-55
2022/10/15 00:11:32;;;;;;;0.50;0.30;;;;;;;12.64;100.00;95425.34;5132819;27;20431;-55
2022/10/15 00:14:01;;;;;;;1.40;0.50;;;;;;;11.94;100.00;95304.47;5134733;27;20437;-55
2022/10/15 00:16:30;;;;;;;0.50;0.50;;;;;;;12.91;100.00;95374.28;5134756;27;20430;-55
2022/10/15 00:19:00;;;;;;;0.50;0.30;;;;;;;13.75;97.66;95451.63;5134210;27;20430;-55
2022/10/15 00:21:28;;;;;;;0.40;0.30;;;;;;;13.31;97.74;95461.72;5134206;27;20967;-55
2022/10/15 00:23:57;;;;;;;7.87;0.40;;;;;;;13.21;99.08;95456.50;5133758;27;20480;-55
2022/10/15 00:26:28;;;;;;;0.70;0.70;;;;;;;13.03;100.00;95457.97;5134451;27;20441;-54
2022/10/15 00:28:58;;;;;;;0.60;0.53;;;;;;;13.12;100.00;95452.88;5134021;27;20456;-54
2022/10/15 00:31:29;;;;;;;8.67;1.93;;;;;;;13.33;100.00;95459.59;5134195;27;20432;-54
2022/10/15 00:34:00;;;;;;;0.60;0.60;;;;;;;13.22;100.00;95460.75;5133982;27;20436;-54
2022/10/15 00:36:30;;;;;;;0.50;0.47;;;;;;;12.99;100.00;95469.47;5134342;27;20430;-54
2022/10/15 00:38:59;;;;;;;0.50;0.40;;;;;;;12.99;100.00;95461.47;5134211;27;20452;-55
2022/10/15 00:41:31;;;;;;;0.70;0.70;;;;;;;13.07;100.00;95463.56;5134066;27;20985;-54
2022/10/15 00:44:01;;;;;;;0.73;0.70;;;;;;;13.00;100.00;95468.41;5133789;27;20426;-54
2022/10/15 00:46:33;;;;;;;0.87;0.87;;;;;;;12.61;100.00;95378.03;5132479;27;20937;-55
2022/10/15 00:49:05;;;;;;;0.40;0.40;;;;;;;13.27;100.00;95468.69;5133240;27;20790;-55
2022/10/15 00:51:40;;;;;;;0.43;0.43;;;;;;;13.36;100.00;95485.63;5134007;27;20914;-55
2022/10/15 00:54:09;;;;;;;0.80;0.60;;;;;;;12.86;100.00;95412.38;5132398;27;20434;-55
2022/10/15 00:56:41;;;;;;;0.90;0.60;;;;;;;13.22;100.00;95458.88;5133768;27;20452;-55
2022/10/15 00:59:12;;;;;;;0.50;0.40;;;;;;;13.24;100.00;95451.41;5133531;27;20433;-55
2022/10/15 01:01:40;;;;;;;0.60;0.60;;;;;;;13.77;100.00;95465.44;5132481;27;20475;-55
2022/10/15 01:04:09;;;;;;;2.00;0.60;;;;;;;13.98;100.00;95460.66;5132554;27;20440;-54
2022/10/15 01:06:38;;;;;;;0.30;0.30;;;;;;;13.55;100.00;95409.28;5133746;27;20414;-54
2022/10/15 01:09:06;;;;;;;0.50;0.30;;;;;;;13.32;100.00;95464.13;5133275;27;20438;-54
2022/10/15 01:11:42;;;;;;;1.33;1.23;;;;;;;13.59;100.00;95468.06;5131759;27;20425;-55
2022/10/15 01:14:23;;;;;;;0.60;0.40;;;;;;;13.42;100.00;95471.19;5132729;27;20438;-55
2022/10/15 01:16:57;;;;;;;0.70;0.70;;;;;;;13.91;100.00;95466.31;5133552;27;20435;-55
2022/10/15 01:20:04;;;;;;;0.40;0.40;;;;;;;13.34;100.00;95471.81;5133368;27;20952;-55
2022/10/15 01:22:47;;;;;;;0.50;0.50;;;;;;;12.07;100.00;95339.16;5133284;27;20453;-55
2022/10/15 01:25:29;;;;;;;0.40;0.30;;;;;;;13.10;100.00;95465.66;5133103;27;20985;-54
2022/10/15 01:28:12;;;;;;;0.80;0.80;;;;;;;12.63;100.00;95400.63;5133479;27;20418;-54
2022/10/15 01:30:45;;;;;;;0.40;0.30;;;;;;;13.09;100.00;95469.41;5132779;27;20446;-54
2022/10/15 01:33:29;;;;;;;0.50;0.40;;;;;;;11.49;100.00;95255.09;5133264;27;20441;-54
2022/10/15 01:36:06;;;;;;;0.60;0.40;;;;;;;12.62;100.00;95459.41;5133274;27;20430;-54
2022/10/15 01:38:46;;;;;;;0.87;0.80;;;;;;;13.07;100.00;95456.38;5132906;27;20434;-54
2022/10/15 01:41:20;;;;;;;0.40;0.30;;;;;;;13.22;100.00;95469.53;5133088;27;20465;-54
2022/10/15 01:43:57;;;;;;;0.47;0.30;;;;;;;13.35;100.00;95468.88;5132721;27;20437;-55
2022/10/15 01:46:34;;;;;;;1.13;1.13;;;;;;;13.25;100.00;95474.31;5132700;27;20429;-54
2022/10/15 01:49:04;;;;;;;0.93;0.50;;;;;;;12.83;100.00;95471.44;5133027;27;20433;-54
2022/10/15 01:51:36;;;;;;;0.43;0.30;;;;;;;12.57;100.00;95473.50;5132659;27;20436;-54
2022/10/15 01:54:07;;;;;;;0.70;0.67;;;;;;;12.68;100.00;95467.06;5132558;27;20433;-54
2022/10/15 01:56:37;;;;;;;0.83;0.83;;;;;;;13.12;100.00;95471.50;5133022;27;20453;-55
2022/10/15 01:59:07;;;;;;;0.50;0.40;;;;;;;13.31;100.00;95472.34;5132813;27;20794;-54
2022/10/15 02:01:37;;;;;;;0.60;0.30;;;;;;;13.59;100.00;95471.53;5132401;27;20480;-54
2022/10/15 02:04:19;;;;;;;0.70;0.70;;;;;;;13.52;100.00;95471.06;5132553;27;20458;-54
2022/10/15 02:06:53;;;;;;;0.50;0.50;;;;;;;12.92;100.00;95415.78;5132576;27;20556;-54
2022/10/15 02:09:35;;;;;;;0.67;0.63;;;;;;;11.34;100.00;95268.47;5132892;27;20422;-54
2022/10/15 02:12:15;;;;;;;0.93;0.93;;;;;;;11.45;100.00;95337.16;5132433;27;20441;-54
2022/10/15 02:14:49;;;;;;;2.90;2.80;;;;;;;12.84;100.00;95458.94;5131687;27;20452;-54
2022/10/15 02:17:24;;;;;;;0.50;0.30;;;;;;;13.39;100.00;95458.44;5131730;27;20451;-55
2022/10/15 02:19:58;;;;;;;1.57;0.50;;;;;;;13.46;100.00;95442.91;5136700;27;20909;-54
2022/10/15 02:22:35;;;;;;;0.30;0.20;;;;;;;13.70;100.00;95453.56;5136518;27;20473;-54
2022/10/15 02:25:07;;;;;;;0.70;0.53;;;;;;;13.52;100.00;95454.31;5136421;27;20851;-54
2022/10/15 02:27:38;;;;;;;0.70;0.63;;;;;;;13.63;100.00;95450.47;5136348;27;20430;-54
2022/10/15 02:30:09;;;;;;;0.60;0.60;;;;;;;13.16;100.00;95459.22;5136155;27;20425;-54
2022/10/15 02:32:41;;;;;;;0.40;0.30;;;;;;;12.75;100.00;95462.22;5135524;27;20790;-55
2022/10/15 02:35:11;;;;;;;0.60;0.50;;;;;;;12.94;100.00;95461.53;5136564;27;20420;-54
2022/10/15 02:37:47;;;;;;;0.40;0.30;;;;;;;12.52;100.00;95457.59;5136326;27;20429;-54
2022/10/15 02:40:16;;;;;;;0.97;0.97;;;;;;;12.10;100.00;95388.28;5136210;27;20924;-54
2022/10/15 02:42:44;;;;;;;0.40;0.40;;;;;;;12.58;100.00;95458.38;5136281;27;20461;-58
2022/10/15 02:45:12;;;;;;;0.57;0.53;;;;;;;12.43;100.00;95463.78;5135199;27;20443;-54
2022/10/15 02:47:42;;;;;;;0.40;0.30;;;;;;;12.36;100.00;95442.84;5136514;27;20440;-54
2022/10/15 02:50:10;;;;;;;0.60;0.47;;;;;;;12.82;100.00;95469.09;5136316;27;20426;-54
2022/10/15 02:52:39;;;;;;;6.53;1.50;;;;;;;12.77;100.00;95464.59;5136458;27;20425;-54
2022/10/15 02:55:08;;;;;;;0.50;0.40;;;;;;;12.62;100.00;95454.09;5136284;27;20430;-54
2022/10/15 02:57:36;;;;;;;0.40;0.37;;;;;;;12.45;100.00;95467.75;5136260;27;20428;-54
2022/10/15 03:00:05;;;;;;;1.40;1.23;;;;;;;12.42;100.00;95470.19;5136201;27;20460;-55
2022/10/15 03:02:33;;;;;;;0.50;0.50;;;;;;;12.27;100.00;95457.78;5134499;27;20473;-54
2022/10/15 03:05:03;;;;;;;0.60;0.40;;;;;;;12.33;100.00;95462.00;5135761;27;20440;-54
2022/10/15 03:07:32;;;;;;;1.17;1.07;;;;;;;12.23;100.00;95467.38;5135882;27;20431;-54
2022/10/15 03:10:00;;;;;;;1.90;1.80;;;;;;;12.16;100.00;95472.22;5136000;27;20438;-53
2022/10/15 03:12:28;;;;;;;0.70;0.70;;;;;;;12.37;100.00;95470.22;5135512;27;20440;-54
2022/10/15 03:14:57;;;;;;;0.50;0.50;;;;;;;12.57;100.00;95473.50;5135926;27;20433;-54
2022/10/15 03:17:25;;;;;;;0.90;0.70;;;;;;;12.15;100.00;95444.03;5134507;27;20941;-54
2022/10/15 03:19:54;;;;;;;0.60;0.50;;;;;;;12.57;100.00;95475.41;5135675;27;20426;-54
2022/10/15 03:22:23;;;;;;;1.33;1.23;;;;;;;12.45;100.00;95475.72;5135523;27;20466;-53
2022/10/15 03:24:52;;;;;;;0.57;0.30;;;;;;;12.36;100.00;95437.53;5135443;27;20851;-54
2022/10/15 03:27:20;;;;;;;0.40;0.30;;;;;;;12.57;100.00;95468.19;5135278;27;20433;-53
2022/10/15 03:29:49;;;;;;;0.70;0.57;;;;;;;12.67;100.00;95478.75;5134897;27;20513;-53
2022/10/15 03:32:17;;;;;;;0.93;0.83;;;;;;;12.85;100.00;95476.50;5134702;27;20426;-54
2022/10/15 03:34:45;;;;;;;0.40;0.33;;;;;;;12.74;100.00;95470.47;5134342;27;20436;-54
2022/10/15 03:37:13;;;;;;;0.70;0.70;;;;;;;13.02;100.00;95468.91;5135442;27;20421;-54
2022/10/15 03:39:43;;;;;;;0.67;0.60;;;;;;;12.64;100.00;95467.91;5135373;27;20436;-54
2022/10/15 03:42:11;;;;;;;0.50;0.40;;;;;;;12.80;100.00;95476.56;5135442;27;20481;-54
2022/10/15 03:44:40;;;;;;;0.40;0.40;;;;;;;12.63;100.00;95471.63;5135479;27;20809;-54
2022/10/15 03:47:08;;;;;;;1.20;0.60;;;;;;;12.86;100.00;95470.09;5134345;27;20437;-54
2022/10/15 03:49:36;;;;;;;0.40;0.20;;;;;;;13.28;100.00;95468.41;5135266;27;20487;-54
2022/10/15 03:52:05;;;;;;;0.40;0.40;;;;;;;13.44;100.00;95471.69;5133759;27;20426;-54
2022/10/15 03:54:33;;;;;;;1.17;0.50;;;;;;;13.19;100.00;95469.28;5135196;27;20449;-54
2022/10/15 03:57:03;;;;;;;0.60;0.43;;;;;;;13.17;100.00;95471.44;5135033;27;20426;-55
2022/10/15 03:59:31;;;;;;;0.50;0.40;;;;;;;12.75;100.00;95474.72;5135228;27;20797;-55
2022/10/15 04:02:00;;;;;;;0.40;0.30;;;;;;;12.89;100.00;95467.69;5134462;27;20493;-55
2022/10/15 04:04:28;;;;;;;0.50;0.50;;;;;;;13.07;100.00;95466.22;5134042;27;20429;-55
2022/10/15 04:06:56;;;;;;;0.50;0.50;;;;;;;13.12;100.00;95466.19;5134456;27;20937;-55
2022/10/15 04:09:24;;;;;;;0.50;0.47;;;;;;;12.83;100.00;95460.81;5134515;27;20425;-55
2022/10/15 04:11:53;;;;;;;0.50;0.30;;;;;;;12.55;100.00;95454.38;5134448;27;20428;-55
2022/10/15 04:14:22;;;;;;;0.67;0.67;;;;;;;12.37;100.00;95439.09;5134277;27;20430;-55
2022/10/15 04:16:51;;;;;;;1.43;0.50;;;;;;;12.46;100.00;95450.75;5134678;27;20946;-55
2022/10/15 04:19:19;;;;;;;1.20;1.07;;;;;;;12.45;100.00;95453.66;5134514;27;20438;-55
2022/10/15 04:21:47;;;;;;;1.83;1.37;;;;;;;12.32;100.00;95457.75;5134601;27;20426;-55
2022/10/15 04:24:15;;;;;;;0.50;0.40;;;;;;;12.41;100.00;95431.38;5133835;27;20525;-56
2022/10/15 04:26:44;;;;;;;1.73;1.10;;;;;;;12.25;100.00;95403.31;5134209;27;20512;-56
2022/10/15 04:29:12;;;;;;;0.50;0.40;;;;;;;12.86;100.00;95454.94;5133986;27;20830;-55
2022/10/15 04:31:42;;;;;;;0.40;0.40;;;;;;;12.79;100.00;95461.66;5133848;27;20432;-55
2022/10/15 04:34:11;;;;;;;0.83;0.83;;;;;;;12.70;100.00;95446.28;5133967;27;20441;-55
2022/10/15 04:36:39;;;;;;;0.60;0.60;;;;;;;12.77;100.00;95452.06;5134034;27;20456;-55
2022/10/15 04:39:07;;;;;;;0.57;0.50;;;;;;;12.65;99.02;95451.66;5133904;27;20422;-55
2022/10/15 04:41:41;;;;;;;0.70;0.70;;;;;;;12.89;99.53;95445.59;5133405;27;20461;-53
2022/10/15 04:44:09;;;;;;;12.07;0.60;;;;;;;12.87;96.84;95453.09;5133771;27;20441;-54
2022/10/15 04:46:38;;;;;;;0.40;0.30;;;;;;;12.48;97.53;95416.69;5133777;27;20423;-55
2022/10/15 04:49:08;;;;;;;0.50;0.50;;;;;;;12.97;95.40;95445.81;5133829;27;20436;-55
2022/10/15 04:51:36;;;;;;;0.30;0.30;;;;;;;11.90;96.01;95306.09;5133707;27;20429;-55
2022/10/15 04:54:04;;;;;;;0.40;0.30;;;;;;;13.09;93.85;95448.91;5133514;27;20438;-55
2022/10/15 04:56:33;;;;;;;0.40;0.30;;;;;;;13.25;98.45;95441.56;5134064;27;20434;-55
2022/10/15 04:59:01;;;;;;;0.70;0.43;;;;;;;13.26;89.56;95464.44;5133597;27;20441;-56
2022/10/15 05:01:29;;;;;;;0.40;0.20;;;;;;;13.12;90.91;95466.19;5133487;27;20429;-55
2022/10/15 05:03:57;;;;;;;0.40;0.30;;;;;;;12.97;90.58;95467.09;5133411;27;20470;-55
2022/10/15 05:06:27;;;;;;;0.40;0.40;;;;;;;13.16;92.31;95468.00;5133352;27;20437;-55
2022/10/15 05:08:56;;;;;;;0.50;0.40;;;;;;;13.06;91.05;95453.94;5133738;27;20806;-55
2022/10/15 05:11:26;;;;;;;0.60;0.60;;;;;;;13.15;93.45;95461.09;5133553;27;20457;-56
2022/10/15 05:13:56;;;;;;;1.20;0.73;;;;;;;12.86;93.08;95462.91;5132993;27;20422;-55
2022/10/15 05:16:26;;;;;;;1.60;0.40;;;;;;;12.64;94.78;95402.22;5133381;27;20542;-55
2022/10/15 05:18:57;;;;;;;1.27;1.17;;;;;;;13.08;91.95;95454.53;5133339;27;20955;-55
2022/10/15 05:21:27;;;;;;;4.30;1.17;;;;;;;13.21;89.59;95473.25;5133048;27;20430;-55
2022/10/15 05:23:55;;;;;;;0.50;0.40;;;;;;;13.36;88.88;95474.97;5132749;27;20515;-55
2022/10/15 05:26:25;;;;;;;0.40;0.30;;;;;;;12.92;89.85;95469.00;5133003;27;20457;-55
2022/10/15 05:28:53;;;;;;;0.47;0.47;;;;;;;12.94;89.60;95466.84;5132977;27;20913;-55
2022/10/15 05:31:23;;;;;;;1.93;0.73;;;;;;;13.32;90.05;95468.63;5132290;27;20479;-56
2022/10/15 05:33:53;;;;;;;0.40;0.30;;;;;;;13.34;88.42;95471.81;5132028;27;20516;-55
2022/10/15 05:36:23;;;;;;;0.40;0.27;;;;;;;13.55;87.82;95480.38;5133222;27;20441;-55
2022/10/15 05:38:54;;;;;;;0.40;0.30;;;;;;;13.45;85.98;95477.81;5132687;27;20918;-56
2022/10/15 05:41:24;;;;;;;1.23;1.23;;;;;;;13.80;84.82;95475.53;5133151;27;20930;-59
2022/10/15 05:43:54;;;;;;;0.60;0.50;;;;;;;14.19;83.67;95475.31;5132808;27;21023;-56
2022/10/15 05:46:23;;;;;;;0.60;0.47;;;;;;;14.76;80.29;95478.75;5132843;27;20430;-57
2022/10/15 05:48:52;;;;;;;0.73;0.73;;;;;;;14.94;78.53;95486.75;5132227;27;20853;-56
2022/10/15 05:51:21;;;;;;;0.50;0.50;;;;;;;15.50;78.18;95488.47;5132834;27;20428;-55
2022/10/15 05:53:53;;;;;;;0.50;0.30;;;;;;;15.36;78.13;95487.59;5132038;27;20444;-55
2022/10/15 05:56:22;;;;;;;0.40;0.30;;;;;;;15.81;75.42;95481.47;5132666;27;20434;-56
2022/10/15 05:58:51;;;;;;;0.50;0.50;;;;;;;16.08;75.35;95484.09;5132591;27;20437;-56
2022/10/15 06:01:19;;;;;;;0.40;0.40;;;;;;;16.42;79.15;95487.09;5132115;27;20430;-57
2022/10/15 06:03:48;;;;;;;0.50;0.50;;;;;;;16.48;72.17;95499.28;5132456;27;20468;-57
2022/10/15 06:06:18;;;;;;;0.50;0.40;;;;;;;16.74;71.24;95493.38;5132533;27;20426;-57
2022/10/15 06:08:47;;;;;;;0.70;0.40;;;;;;;16.50;71.23;95499.75;5132482;27;20418;-58
2022/10/15 06:11:18;;;;;;;0.50;0.47;;;;;;;16.50;70.83;95499.75;5133244;27;20941;-58
2022/10/15 06:13:47;;;;;;;0.40;0.30;;;;;;;16.36;71.24;95504.38;5133179;27;20774;-58
2022/10/15 06:16:17;;;;;;;0.87;0.77;;;;;;;16.24;69.38;95498.72;5133656;27;20867;-59
2022/10/15 06:18:52;;;;;;;0.40;0.20;;;;;;;16.20;71.02;95507.66;5132441;27;20438;-58
2022/10/15 06:21:20;;;;;;;0.73;0.30;;;;;;;16.09;72.31;95508.97;5132340;27;20438;-58
2022/10/15 06:23:48;;;;;;;0.40;0.30;;;;;;;16.11;69.49;95512.94;5132008;27;20482;-58
2022/10/15 06:26:18;;;;;;;0.80;0.53;;;;;;;15.73;70.09;95508.88;5132266;27;20509;-57
2022/10/15 06:28:47;;;;;;;0.40;0.30;;;;;;;15.64;70.39;95521.31;5132169;27;20421;-57
2022/10/15 06:31:16;;;;;;;0.40;0.30;;;;;;;15.70;69.83;95514.81;5132337;27;20922;-57
2022/10/15 06:33:44;;;;;;;0.40;0.40;;;;;;;16.67;69.52;95522.47;5132491;27;20421;-56
2022/10/15 06:36:13;;;;;;;0.40;0.30;;;;;;;16.65;69.51;95527.28;5132615;27;20434;-56
2022/10/15 06:38:43;;;;;;;0.40;0.40;;;;;;;16.80;67.09;95526.97;5132217;27;20449;-56
2022/10/15 06:41:11;;;;;;;0.87;0.40;;;;;;;17.80;66.66;95491.50;5132327;27;20426;-56
2022/10/15 06:43:41;;;;;;;0.40;0.30;;;;;;;18.02;63.95;95522.81;5132456;27;20463;-56
2022/10/15 06:46:09;;;;;;;0.40;0.30;;;;;;;18.31;62.52;95518.50;5132023;27;20819;-56
2022/10/15 06:48:38;;;;;;;0.57;0.40;;;;;;;18.35;63.51;95510.59;5132422;27;20427;-56
2022/10/15 06:51:06;;;;;;;0.50;0.30;;;;;;;18.40;61.72;95497.03;5132099;27;20419;-56
2022/10/15 06:53:34;;;;;;;0.40;0.30;;;;;;;18.27;60.03;95514.03;5132034;27;20427;-56
2022/10/15 06:56:04;;;;;;;0.60;0.60;;;;;;;19.03;59.56;95513.34;5131956;27;20430;-56
2022/10/15 06:58:32;;;;;;;3.13;1.43;;;;;;;19.27;62.99;95514.75;5131956;27;20438;-55
2022/10/15 07:01:04;;;;;;;0.40;0.30;;;;;;;19.19;59.53;95510.97;5131792;27;20431;-55
2022/10/15 07:03:32;;;;;;;0.40;0.40;;;;;;;18.75;58.66;95508.59;5132181;27;20466;-55
2022/10/15 07:06:02;;;;;;;0.40;0.30;;;;;;;19.17;60.95;95498.94;5135531;27;20427;-55
2022/10/15 07:08:30;;;;;;;0.40;0.20;;;;;;;18.29;58.67;95458.97;5135911;27;20428;-55
2022/10/15 07:11:01;;;;;;;2.10;1.70;;;;;;;17.99;62.66;95518.06;5135681;27;20452;-55
2022/10/15 07:13:30;;;;;;;0.50;0.33;;;;;;;17.93;60.80;95522.00;5136118;27;20420;-55
2022/10/15 07:16:05;;;;;;;0.40;0.30;;;;;;;17.78;61.36;95510.56;5135887;27;20529;-55
2022/10/15 07:18:34;;;;;;;0.50;0.40;;;;;;;17.85;61.73;95528.09;5135449;27;20440;-56
2022/10/15 07:21:03;;;;;;;0.40;0.30;;;;;;;17.72;60.46;95519.06;5135374;27;20432;-55
2022/10/15 07:23:32;;;;;;;0.53;0.53;;;;;;;17.68;61.82;95507.38;5135005;27;20519;-56
2022/10/15 07:26:01;;;;;;;0.50;0.30;;;;;;;17.96;61.04;95524.81;5135408;27;20963;-56
2022/10/15 07:28:29;;;;;;;0.57;0.33;;;;;;;17.70;61.98;95505.97;5135226;27;20428;-56
2022/10/15 07:31:01;;;;;;;0.40;0.30;;;;;;;17.53;61.68;95532.69;5135124;27;20429;-56
2022/10/15 07:33:33;;;;;;;0.40;0.20;;;;;;;17.17;61.68;95531.97;5135166;27;20430;-56
2022/10/15 07:36:03;;;;;;;0.80;0.80;;;;;;;17.28;64.14;95466.31;5135462;27;20823;-56
2022/10/15 07:38:32;;;;;;;0.50;0.30;;;;;;;17.62;61.30;95519.34;5135085;27;20419;-56
2022/10/15 07:41:01;;;;;;;0.73;0.73;;;;;;;18.24;62.05;95526.19;5134916;27;20430;-56
2022/10/15 07:43:30;;;;;;;0.60;0.50;;;;;;;18.03;60.53;95519.03;5135355;27;20431;-55
2022/10/15 07:45:58;;;;;;;0.67;0.53;;;;;;;18.06;60.21;95529.16;5135124;27;20424;-56
2022/10/15 07:48:26;;;;;;;0.40;0.20;;;;;;;18.40;61.24;95524.66;5134975;27;20425;-56
2022/10/15 07:50:56;;;;;;;0.40;0.30;;;;;;;18.72;62.08;95531.50;5135210;27;20811;-56
2022/10/15 07:53:25;;;;;;;1.00;0.87;;;;;;;18.65;63.58;95522.34;5134815;27;20426;-56
2022/10/15 07:55:53;;;;;;;1.33;0.47;;;;;;;18.10;57.79;95511.31;5134796;27;20423;-56
2022/10/15 07:58:21;;;;;;;0.70;0.53;;;;;;;18.26;58.83;95515.16;5134910;27;20901;-56
2022/10/15 08:00:50;;;;;;;0.50;0.30;;;;;;;18.26;62.70;95523.22;5135044;27;20427;-56
2022/10/15 08:03:18;;;;;;;0.40;0.20;;;;;;;18.09;59.87;95512.44;5134845;27;20439;-56
2022/10/15 08:05:46;;;;;;;0.83;0.83;;;;;;;18.46;61.09;95533.34;5134142;27;20466;-56
2022/10/15 08:08:16;;;;;;;0.40;0.30;;;;;;;18.13;58.43;95524.91;5134873;27;20539;-56
2022/10/15 08:10:45;;;;;;;0.40;0.40;;;;;;;18.42;58.68;95531.59;5134807;27;20519;-56
2022/10/15 08:13:13;;;;;;;0.40;0.30;;;;;;;18.62;57.59;95525.66;5134674;27;20431;-56
2022/10/15 08:15:42;;;;;;;0.40;0.30;;;;;;;18.75;58.63;95527.38;5133543;27;20420;-56
2022/10/15 08:18:10;;;;;;;0.50;0.47;;;;;;;19.06;61.14;95533.41;5134276;27;20438;-56
2022/10/15 08:20:39;;;;;;;0.50;0.50;;;;;;;18.65;58.16;95533.88;5134342;27;20430;-56
2022/10/15 08:23:15;;;;;;;0.40;0.30;;;;;;;18.59;57.28;95529.78;5134351;27;20454;-56
2022/10/15 08:25:44;;;;;;;0.40;0.20;;;;;;;18.47;61.42;95475.91;5133807;27;20491;-55
2022/10/15 08:28:13;;;;;;;4.33;0.83;;;;;;;19.10;58.11;95530.88;5134467;27;20428;-55
2022/10/15 08:30:41;;;;;;;0.40;0.30;;;;;;;19.54;56.42;95533.22;5134489;27;20475;-55
2022/10/15 08:33:09;;;;;;;0.50;0.30;;;;;;;19.45;54.14;95476.00;5134268;27;20429;-55
2022/10/15 08:35:42;;;;;;;0.70;0.60;;;;;;;20.22;54.30;95530.25;5134399;27;20417;-56
2022/10/15 08:38:10;;;;;;;0.40;0.27;;;;;;;21.08;54.61;95528.94;5133839;27;21063;-56
2022/10/15 08:40:48;;;;;;;0.50;0.40;;;;;;;21.48;50.30;95522.69;5133782;27;20890;-55
2022/10/15 08:43:23;;;;;;;0.50;0.40;;;;;;;22.20;48.80;95477.28;5134111;27;20438;-55
2022/10/15 08:45:54;;;;;;;0.40;0.30;;;;;;;22.65;48.56;95510.34;5134011;27;20465;-55
2022/10/15 08:48:29;;;;;;;0.40;0.30;;;;;;;23.35;45.63;95519.72;5133775;27;20434;-54
2022/10/15 08:51:02;;;;;;;0.97;0.30;;;;;;;23.94;48.47;95509.69;5134007;27;20429;-53
2022/10/15 08:53:38;;;;;;;0.40;0.30;;;;;;;23.35;44.45;95403.41;5133971;27;20431;-52
2022/10/15 08:56:16;;;;;;;0.50;0.30;;;;;;;24.70;43.94;95519.22;5133843;27;20419;-52
2022/10/15 08:58:52;;;;;;;0.90;0.40;;;;;;;25.50;43.00;95524.81;5133362;27;20429;-52
2022/10/15 09:01:28;;;;;;;0.40;0.30;;;;;;;26.07;39.83;95515.00;5133142;27;20427;-52
2022/10/15 09:04:06;;;;;;;0.40;0.20;;;;;;;25.75;41.14;95528.78;5133821;27;20430;-52
2022/10/15 09:06:37;;;;;;;0.40;0.30;;;;;;;25.18;42.47;95526.09;5133320;27;20422;-53
2022/10/15 09:09:13;;;;;;;0.60;0.60;;;;;;;24.47;41.37;95519.09;5133377;27;20427;-53
2022/10/15 09:11:54;;;;;;;0.47;0.47;;;;;;;24.03;46.58;95521.13;5133085;27;20438;-53
2022/10/15 09:14:26;;;;;;;0.90;0.63;;;;;;;23.89;42.24;95528.09;5133366;27;20509;-53
2022/10/15 09:16:54;;;;;;;0.40;0.40;;;;;;;22.61;44.58;95529.13;5133124;27;20423;-53
2022/10/15 09:19:26;;;;;;;0.40;0.30;;;;;;;22.24;46.24;95522.16;5133029;27;20427;-53
2022/10/15 09:21:55;;;;;;;5.50;0.40;;;;;;;21.43;46.64;95528.28;5133085;27;20505;-53
2022/10/15 09:24:26;;;;;;;2.77;0.80;;;;;;;21.50;46.30;95531.22;5133044;27;20478;-54
2022/10/15 09:27:06;;;;;;;0.53;0.40;;;;;;;20.72;46.61;95532.22;5132747;27;20458;-54
2022/10/15 09:29:41;;;;;;;0.50;0.30;;;;;;;21.11;45.95;95531.78;5132057;27;20431;-54
2022/10/15 09:32:18;;;;;;;0.73;0.50;;;;;;;21.91;47.92;95526.84;5132378;27;20427;-54
2022/10/15 09:34:53;;;;;;;0.40;0.20;;;;;;;21.27;46.93;95488.81;5133113;27;20900;-54
2022/10/15 09:37:28;;;;;;;0.57;0.57;;;;;;;21.25;47.24;95381.31;5133195;27;20422;-54
2022/10/15 09:40:20;;;;;;;0.53;0.37;;;;;;;21.60;46.46;95488.78;5132789;27;20434;-54
2022/10/15 09:42:53;;;;;;;0.40;0.30;;;;;;;22.42;46.22;95518.09;5132674;27;20965;-54
2022/10/15 09:45:23;;;;;;;0.40;0.40;;;;;;;22.31;45.44;95521.59;5132652;27;20474;-54
2022/10/15 09:47:59;;;;;;;2.73;2.07;;;;;;;21.90;47.24;95517.19;5133087;27;20422;-54
2022/10/15 09:50:39;;;;;;;0.40;0.27;;;;;;;22.69;46.75;95508.53;5132711;27;20430;-54
2022/10/15 09:53:18;;;;;;;0.40;0.20;;;;;;;22.29;45.82;95492.22;5132189;27;20430;-54
2022/10/15 09:56:01;;;;;;;0.50;0.37;;;;;;;22.07;46.55;95506.19;5132541;27;20443;-55
2022/10/15 09:58:37;;;;;;;0.40;0.20;;;;;;;22.26;49.46;95500.22;5132451;27;20946;-54
2022/10/15 10:01:06;;;;;;;0.40;0.30;;;;;;;22.94;44.22;95501.94;5131688;27;20430;-55
2022/10/15 10:03:36;;;;;;;0.40;0.30;;;;;;;22.88;43.68;95486.28;5132752;27;20423;-54
2022/10/15 10:06:08;;;;;;;0.40;0.30;;;;;;;22.04;44.70;95480.66;5132782;27;20463;-55
2022/10/15 10:08:39;;;;;;;0.40;0.30;;;;;;;23.98;43.63;95491.59;5132762;27;20423;-54
2022/10/15 10:11:10;;;;;;;0.50;0.30;;;;;;;24.75;42.07;95464.75;5132283;27;20419;-54
2022/10/15 10:13:44;;;;;;;0.40;0.30;;;;;;;26.04;39.37;95477.69;5132478;27;20419;-53
2022/10/15 10:16:15;;;;;;;0.50;0.27;;;;;;;26.96;37.31;95472.50;5132534;27;20430;-54
2022/10/15 10:18:49;;;;;;;5.50;0.60;;;;;;;26.81;36.36;95467.25;5132388;27;20868;-53
2022/10/15 10:21:26;;;;;;;0.80;0.80;;;;;;;27.17;36.46;95465.75;5132364;27;20431;-53
2022/10/15 10:23:54;;;;;;;0.40;0.40;;;;;;;27.58;36.08;95465.44;5132100;27;20470;-53
2022/10/15 10:26:23;;;;;;;0.43;0.40;;;;;;;27.50;35.35;95458.34;5132512;27;20502;-52
2022/10/15 10:28:55;;;;;;;0.60;0.60;;;;;;;27.90;35.31;95459.53;5132542;27;20426;-52
2022/10/15 10:31:41;;;;;;;0.40;0.33;;;;;;;27.83;35.89;95470.34;5132478;27;20502;-51
2022/10/15 10:34:16;;;;;;;0.53;0.33;;;;;;;26.71;35.21;95446.09;5132133;27;20469;-51
2022/10/15 10:36:50;;;;;;;0.70;0.50;;;;;;;27.61;34.51;95453.00;5132546;27;20422;-52
2022/10/15 10:39:25;;;;;;;0.30;0.30;;;;;;;27.16;34.73;95459.50;5133231;27;20427;-53
2022/10/15 10:41:55;;;;;;;0.40;0.40;;;;;;;27.08;35.85;95455.13;5136895;27;20441;-52
2022/10/15 10:44:33;;;;;;;2.53;0.80;;;;;;;27.21;34.78;95445.56;5136042;27;20435;-52
2022/10/15 10:47:09;;;;;;;0.50;0.40;;;;;;;27.46;34.74;95449.38;5136327;27;20454;-52
2022/10/15 10:49:39;;;;;;;0.40;0.30;;;;;;;27.65;34.41;95437.50;5135868;27;20504;-53
2022/10/15 10:52:19;;;;;;;0.50;0.40;;;;;;;27.98;33.26;95440.13;5136032;27;20426;-52
2022/10/15 10:54:54;;;;;;;0.40;0.40;;;;;;;28.02;32.92;95430.06;5135990;27;20452;-52
2022/10/15 10:57:32;;;;;;;0.50;0.40;;;;;;;28.42;32.45;95433.84;5135966;27;20784;-53
2022/10/15 11:00:07;;;;;;;0.57;0.57;;;;;;;29.49;32.02;95432.03;5136163;27;20917;-53
2022/10/15 11:02:40;;;;;;;0.30;0.30;;;;;;;28.75;34.25;95423.53;5135342;27;20913;-52
2022/10/15 11:05:09;;;;;;;0.40;0.40;;;;;;;28.24;32.53;95425.53;5135189;27;20426;-52
2022/10/15 11:07:47;;;;;;;0.40;0.30;;;;;;;28.76;32.64;95416.16;5134988;27;20782;-53
2022/10/15 11:10:22;;;;;;;0.40;0.37;;;;;;;29.18;31.13;95418.25;5135597;27;20908;-53
2022/10/15 11:13:02;;;;;;;0.40;0.30;;;;;;;27.50;33.30;95424.91;5135908;27;20432;-52
2022/10/15 11:15:44;;;;;;;0.40;0.30;;;;;;;27.10;34.48;95425.63;5135966;27;20475;-52
2022/10/15 11:18:31;;;;;;;0.40;0.30;;;;;;;28.43;31.93;95419.84;5135495;27;21054;-52
2022/10/15 11:21:11;;;;;;;2.40;0.50;;;;;;;28.20;31.37;95425.53;5136027;27;20414;-52
2022/10/15 11:23:55;;;;;;;0.30;0.30;;;;;;;29.10;32.29;95422.91;5135390;27;20425;-53
2022/10/15 11:26:35;;;;;;;0.50;0.30;;;;;;;28.94;32.31;95409.59;5135564;27;20485;-53
2022/10/15 11:29:35;;;;;;;0.30;0.30;;;;;;;30.24;30.80;95394.56;5135697;27;20430;-52
2022/10/15 11:32:20;;;;;;;0.40;0.40;;;;;;;29.93;29.87;95406.34;5134764;27;20521;-52
2022/10/15 11:35:13;;;;;;;0.93;0.77;;;;;;;30.54;29.22;95405.09;5134826;27;20430;-52
2022/10/15 11:38:12;;;;;;;0.30;0.30;;;;;;;30.74;28.98;95400.72;5134957;27;20446;-53
2022/10/15 11:40:52;;;;;;;0.40;0.30;;;;;;;30.92;29.48;95400.69;5135406;27;20940;-53
2022/10/15 11:43:37;;;;;;;0.40;0.33;;;;;;;29.69;29.23;95394.19;5134784;27;20515;-52
2022/10/15 11:46:14;;;;;;;0.30;0.30;;;;;;;29.40;29.62;95400.78;5135134;27;20505;-51
2022/10/15 11:48:58;;;;;;;0.30;0.20;;;;;;;27.35;31.83;95390.53;5135283;27;20426;-52
2022/10/15 11:51:33;;;;;;;0.50;0.40;;;;;;;28.56;32.68;95399.28;5133889;27;20422;-52